createdAt,value
2018-10-02T00:00:48.879Z,17.80
2018-10-02T00:01:48.857Z,17.80
2018-10-02T00:02:48.846Z,19.10
2018-10-02T00:03:48.832Z,19.40
2018-10-02T00:04:48.796Z,19.20
2018-10-02T00:05:48.786Z,19.90
2018-10-02T00:06:48.748Z,18.10
2018-10-02T00:07:48.730Z,18.70
2018-10-02T00:08:48.713Z,19.90
2018-10-02T00:09:48.699Z,21.20
2018-10-02T00:10:48.670Z,18.50
2018-10-02T00:11:48.652Z,22.30
2018-10-02T00:12:48.638Z,19.90
2018-10-02T00:13:48.604Z,18.50
2018-10-02T00:14:48.593Z,16.80
2018-10-02T00:15:48.562Z,20.80
2018-10-02T00:16:48.555Z,19.30
2018-10-02T00:17:48.537Z,18.10
2018-10-02T00:18:48.500Z,19.30
2018-10-02T00:19:48.487Z,18.90
2018-10-02T00:20:48.468Z,18.60
2018-10-02T00:21:48.440Z,20.60
2018-10-02T00:22:48.433Z,22.10
2018-10-02T00:23:48.401Z,19.70
2018-10-02T00:24:48.383Z,23.60
2018-10-02T00:25:48.364Z,22.70
2018-10-02T00:26:48.335Z,22.40
2018-10-02T00:27:48.324Z,23.10
2018-10-02T00:28:48.293Z,19.90
2018-10-02T00:29:48.271Z,20.80
2018-10-02T00:30:48.261Z,22.00
2018-10-02T00:31:48.255Z,22.00
2018-10-02T00:32:48.221Z,22.50
2018-10-02T00:33:48.200Z,22.30
2018-10-02T00:34:48.175Z,21.90
2018-10-02T00:35:48.154Z,22.40
2018-10-02T00:36:48.131Z,21.80
2018-10-02T00:37:48.114Z,20.70
2018-10-02T00:38:48.092Z,24.30
2018-10-02T00:39:48.066Z,21.50
2018-10-02T00:40:48.041Z,19.90
2018-10-02T00:41:48.018Z,22.40
2018-10-02T00:42:48.006Z,20.20
2018-10-02T00:43:47.980Z,21.40
2018-10-02T00:44:47.966Z,21.70
2018-10-02T00:45:47.944Z,24.00
2018-10-02T00:46:47.931Z,20.60
2018-10-02T00:47:47.901Z,23.70
2018-10-02T00:48:47.884Z,27.10
2018-10-02T00:49:47.845Z,21.30
2018-10-02T00:50:47.830Z,19.30
2018-10-02T00:51:47.823Z,20.00
2018-10-02T00:52:47.791Z,20.90
2018-10-02T00:53:47.771Z,20.70
2018-10-02T00:54:47.750Z,21.60
2018-10-02T00:55:47.722Z,21.70
2018-10-02T00:56:47.716Z,21.10
2018-10-02T00:57:47.678Z,25.50
2018-10-02T00:58:47.677Z,25.50
2018-10-02T00:59:47.638Z,23.70
2018-10-02T01:00:47.630Z,22.70
2018-10-02T01:01:47.598Z,27.30
2018-10-02T01:02:47.590Z,21.90
2018-10-02T01:03:47.571Z,22.30
2018-10-02T01:04:47.538Z,23.80
2018-10-02T01:05:47.513Z,25.10
2018-10-02T01:06:47.493Z,23.20
2018-10-02T01:07:47.484Z,22.40
2018-10-02T01:08:47.463Z,20.90
2018-10-02T01:09:47.425Z,22.40
2018-10-02T01:10:47.422Z,24.40
2018-10-02T01:11:47.392Z,24.60
2018-10-02T01:12:47.363Z,24.20
2018-10-02T01:13:47.343Z,24.40
2018-10-02T01:14:47.331Z,20.90
2018-10-02T01:15:47.313Z,22.20
2018-10-02T01:16:47.278Z,22.80
2018-10-02T01:17:47.270Z,26.00
2018-10-02T01:18:47.253Z,25.40
2018-10-02T01:19:47.215Z,22.50
2018-10-02T01:20:47.212Z,27.80
2018-10-02T01:21:47.186Z,24.30
2018-10-02T01:22:47.154Z,24.80
2018-10-02T01:23:47.145Z,25.50
2018-10-02T01:24:47.120Z,23.30
2018-10-02T01:25:47.089Z,28.50
2018-10-02T01:26:47.067Z,27.30
2018-10-02T01:27:47.047Z,27.00
2018-10-02T01:28:47.028Z,30.90
2018-10-02T01:29:47.017Z,27.70
2018-10-02T01:30:47.003Z,25.70
2018-10-02T01:31:46.970Z,27.80
2018-10-02T01:32:46.954Z,26.00
2018-10-02T01:33:46.921Z,27.50
2018-10-02T01:34:46.910Z,25.60
2018-10-02T01:35:46.881Z,28.00
2018-10-02T01:36:46.870Z,28.00
2018-10-02T01:37:46.836Z,25.90
2018-10-02T01:38:46.825Z,25.00
2018-10-02T01:39:46.794Z,25.60
2018-10-02T01:40:46.782Z,25.80
2018-10-02T01:41:46.749Z,24.00
2018-10-02T01:42:46.743Z,25.50
2018-10-02T01:43:46.711Z,24.20
2018-10-02T01:44:46.685Z,26.70
2018-10-02T01:45:46.667Z,28.40
2018-10-02T01:46:46.656Z,25.10
2018-10-02T01:47:46.625Z,27.20
2018-10-02T01:48:46.606Z,27.50
2018-10-02T01:49:46.595Z,28.70
2018-10-02T01:50:46.562Z,28.40
2018-10-02T01:51:46.533Z,27.30
2018-10-02T01:52:46.522Z,28.50
2018-10-02T01:53:46.513Z,29.00
2018-10-02T01:54:46.485Z,29.00
2018-10-02T01:55:46.455Z,27.60
2018-10-02T01:56:46.446Z,31.00
2018-10-02T01:57:46.425Z,29.00
2018-10-02T01:58:46.397Z,30.40
2018-10-02T01:59:46.370Z,26.30
2018-10-02T02:00:46.369Z,26.20
2018-10-02T02:01:46.336Z,28.60
2018-10-02T02:02:46.318Z,25.80
2018-10-02T02:03:46.289Z,26.10
2018-10-02T02:04:46.263Z,26.00
2018-10-02T02:05:46.251Z,30.80
2018-10-02T02:06:46.239Z,27.40
2018-10-02T02:07:46.206Z,28.40
2018-10-02T02:08:46.195Z,28.50
2018-10-02T02:09:46.160Z,30.10
2018-10-02T02:10:46.139Z,42.00
2018-10-02T02:11:46.112Z,47.20
2018-10-02T02:12:46.093Z,41.00
2018-10-02T02:13:46.070Z,36.20
2018-10-02T02:14:46.050Z,40.10
2018-10-02T02:15:46.036Z,60.10
2018-10-02T02:16:46.018Z,51.50
2018-10-02T02:17:45.992Z,53.30
2018-10-02T02:18:45.965Z,50.90
2018-10-02T02:19:45.955Z,58.40
2018-10-02T02:20:45.929Z,48.80
2018-10-02T02:21:45.917Z,50.10
2018-10-02T02:22:45.896Z,52.00
2018-10-02T02:23:45.868Z,49.10
2018-10-02T02:24:45.836Z,50.90
2018-10-02T02:25:45.827Z,57.00
2018-10-02T02:26:45.797Z,55.60
2018-10-02T02:27:45.777Z,59.90
2018-10-02T02:28:45.753Z,57.80
2018-10-02T02:29:45.743Z,62.70
2018-10-02T02:30:45.720Z,61.70
2018-10-02T02:31:45.688Z,63.00
2018-10-02T02:32:45.674Z,55.30
2018-10-02T02:33:45.643Z,50.00
2018-10-02T02:34:45.621Z,46.80
2018-10-02T02:35:45.595Z,54.60
2018-10-02T02:36:45.596Z,52.10
2018-10-02T02:37:45.550Z,59.40
2018-10-02T02:38:45.533Z,60.20
2018-10-02T02:39:45.512Z,67.90
2018-10-02T02:40:45.496Z,65.50
2018-10-02T02:41:45.471Z,58.80
2018-10-02T02:42:45.453Z,49.00
2018-10-02T02:43:45.445Z,53.10
2018-10-02T02:44:45.407Z,46.20
2018-10-02T02:45:45.386Z,37.50
2018-10-02T02:46:45.366Z,40.00
2018-10-02T02:47:45.357Z,44.40
2018-10-02T02:48:45.331Z,40.00
2018-10-02T02:49:45.295Z,37.40
2018-10-02T02:50:45.279Z,42.30
2018-10-02T02:51:45.268Z,44.40
2018-10-02T02:52:45.316Z,39.40
2018-10-02T02:53:45.205Z,40.20
2018-10-02T02:54:45.204Z,44.30
2018-10-02T02:55:45.167Z,41.30
2018-10-02T02:56:45.162Z,45.70
2018-10-02T02:57:45.122Z,45.80
2018-10-02T02:58:45.116Z,47.60
2018-10-02T02:59:45.085Z,40.60
2018-10-02T03:00:45.072Z,36.10
2018-10-02T03:01:45.043Z,36.80
2018-10-02T03:02:45.016Z,37.30
2018-10-02T03:03:45.012Z,32.30
2018-10-02T03:04:44.969Z,32.40
2018-10-02T03:05:44.951Z,36.10
2018-10-02T03:06:44.944Z,39.70
2018-10-02T03:07:44.917Z,32.40
2018-10-02T03:08:44.889Z,30.60
2018-10-02T03:09:44.875Z,27.60
2018-10-02T03:10:44.844Z,29.40
2018-10-02T03:11:44.826Z,25.00
2018-10-02T03:12:44.798Z,25.60
2018-10-02T03:13:44.785Z,26.30
2018-10-02T03:14:44.755Z,28.50
2018-10-02T03:15:44.741Z,31.60
2018-10-02T03:16:44.727Z,30.60
2018-10-02T03:17:44.685Z,29.00
2018-10-02T03:18:44.681Z,30.70
2018-10-02T03:19:44.652Z,27.90
2018-10-02T03:20:44.636Z,28.90
2018-10-02T03:21:44.717Z,29.10
2018-10-02T03:22:44.584Z,27.80
2018-10-02T03:23:44.575Z,28.90
2018-10-02T03:24:44.535Z,28.80
2018-10-02T03:25:44.524Z,31.20
2018-10-02T03:26:44.509Z,34.60
2018-10-02T03:27:44.491Z,32.30
2018-10-02T03:28:44.463Z,35.50
2018-10-02T03:29:44.429Z,34.40
2018-10-02T03:30:44.406Z,35.50
2018-10-02T03:31:44.396Z,35.90
2018-10-02T03:32:44.372Z,32.90
2018-10-02T03:33:44.356Z,34.00
2018-10-02T03:34:44.334Z,34.80
2018-10-02T03:35:44.299Z,33.90
2018-10-02T03:36:44.285Z,35.10
2018-10-02T03:37:44.259Z,32.00
2018-10-02T03:38:44.242Z,37.10
2018-10-02T03:39:44.203Z,35.70
2018-10-02T03:40:44.183Z,31.20
2018-10-02T03:41:44.160Z,31.90
2018-10-02T03:42:44.162Z,35.50
2018-10-02T03:43:44.131Z,32.70
2018-10-02T03:44:44.112Z,32.00
2018-10-02T03:45:44.077Z,31.70
2018-10-02T03:46:44.064Z,28.40
2018-10-02T03:47:44.042Z,28.50
2018-10-02T03:48:44.070Z,32.70
2018-10-02T03:49:43.996Z,27.90
2018-10-02T03:50:43.965Z,31.30
2018-10-02T03:51:43.948Z,28.70
2018-10-02T03:52:43.937Z,29.00
2018-10-02T03:53:43.919Z,30.60
2018-10-02T03:54:43.889Z,31.80
2018-10-02T03:55:43.858Z,31.40
2018-10-02T03:56:43.848Z,30.20
2018-10-02T03:57:43.816Z,28.80
2018-10-02T03:58:43.793Z,26.60
2018-10-02T03:59:43.769Z,29.30
2018-10-02T04:00:43.760Z,29.70
2018-10-02T04:01:43.727Z,25.90
2018-10-02T04:02:43.710Z,29.90
2018-10-02T04:03:43.693Z,29.40
2018-10-02T04:04:43.661Z,34.00
2018-10-02T04:05:43.647Z,30.70
2018-10-02T04:06:43.628Z,31.60
2018-10-02T04:07:43.605Z,30.80
2018-10-02T04:08:43.575Z,31.80
2018-10-02T04:09:43.575Z,34.20
2018-10-02T04:10:43.532Z,28.50
2018-10-02T04:11:43.506Z,27.00
2018-10-02T04:12:43.494Z,24.10
2018-10-02T04:13:43.462Z,25.10
2018-10-02T04:14:43.449Z,28.70
2018-10-02T04:15:43.429Z,29.10
2018-10-02T04:16:43.411Z,26.70
2018-10-02T04:17:43.384Z,23.00
2018-10-02T04:18:43.360Z,20.40
2018-10-02T04:19:43.348Z,28.00
2018-10-02T04:20:43.347Z,20.00
2018-10-02T04:21:43.300Z,22.20
2018-10-02T04:22:43.266Z,26.20
2018-10-02T04:23:43.256Z,17.00
2018-10-02T04:24:43.235Z,14.80
2018-10-02T04:25:43.211Z,17.70
2018-10-02T04:26:43.178Z,19.40
2018-10-02T04:27:43.171Z,16.60
2018-10-02T04:28:43.148Z,18.80
2018-10-02T04:29:43.115Z,16.50
2018-10-02T04:30:43.086Z,18.10
2018-10-02T04:31:43.068Z,18.30
2018-10-02T04:32:43.065Z,18.00
2018-10-02T04:33:43.096Z,16.00
2018-10-02T04:34:43.008Z,18.00
2018-10-02T04:35:42.996Z,18.30
2018-10-02T04:36:42.964Z,16.10
2018-10-02T04:37:42.948Z,15.90
2018-10-02T04:38:43.128Z,21.10
2018-10-02T04:39:42.894Z,16.60
2018-10-02T04:40:42.871Z,16.10
2018-10-02T04:41:42.848Z,15.40
2018-10-02T04:42:42.843Z,14.20
2018-10-02T04:43:42.817Z,14.40
2018-10-02T04:44:42.801Z,13.80
2018-10-02T04:45:42.778Z,15.40
2018-10-02T04:46:42.805Z,13.50
2018-10-02T04:47:42.731Z,13.90
2018-10-02T04:48:42.717Z,15.50
2018-10-02T04:49:42.687Z,16.60
2018-10-02T04:50:42.669Z,14.50
2018-10-02T04:51:42.643Z,15.00
2018-10-02T04:52:42.623Z,14.60
2018-10-02T04:53:42.603Z,13.80
2018-10-02T04:54:42.582Z,14.00
2018-10-02T04:55:42.620Z,15.50
2018-10-02T04:56:42.525Z,15.00
2018-10-02T04:57:42.500Z,15.70
2018-10-02T04:58:42.488Z,14.40
2018-10-02T04:59:42.470Z,14.50
2018-10-02T05:00:42.451Z,14.20
2018-10-02T05:01:42.416Z,14.20
2018-10-02T05:02:42.407Z,14.80
2018-10-02T05:03:42.381Z,14.90
2018-10-02T05:04:42.364Z,18.10
2018-10-02T05:05:42.347Z,15.20
2018-10-02T05:06:42.322Z,15.90
2018-10-02T05:07:42.296Z,14.40
2018-10-02T05:08:42.283Z,15.90
2018-10-02T05:09:42.254Z,15.60
2018-10-02T05:10:42.234Z,15.50
2018-10-02T05:11:42.200Z,14.40
2018-10-02T05:12:42.179Z,15.00
2018-10-02T05:13:42.169Z,14.60
2018-10-02T05:14:42.149Z,15.40
2018-10-02T05:15:42.124Z,13.20
2018-10-02T05:16:42.101Z,15.50
2018-10-02T05:17:42.068Z,15.80
2018-10-02T05:18:42.047Z,13.40
2018-10-02T05:19:42.029Z,16.90
2018-10-02T05:20:42.017Z,13.50
2018-10-02T05:21:41.982Z,14.70
2018-10-02T05:22:41.963Z,14.20
2018-10-02T05:23:41.938Z,13.40
2018-10-02T05:24:41.917Z,12.90
2018-10-02T05:25:41.899Z,14.30
2018-10-02T05:26:41.879Z,12.90
2018-10-02T05:27:41.880Z,11.50
2018-10-02T05:28:41.836Z,13.90
2018-10-02T05:29:41.811Z,11.90
2018-10-02T05:30:41.797Z,13.70
2018-10-02T05:31:41.769Z,12.10
2018-10-02T05:32:41.755Z,12.20
2018-10-02T05:33:41.763Z,11.60
2018-10-02T05:34:41.704Z,13.30
2018-10-02T05:35:41.694Z,12.20
2018-10-02T05:36:41.662Z,12.10
2018-10-02T05:37:41.649Z,13.90
2018-10-02T05:38:41.631Z,11.70
2018-10-02T05:39:41.612Z,11.10
2018-10-02T05:40:41.574Z,11.80
2018-10-02T05:41:41.551Z,11.20
2018-10-02T05:42:41.589Z,10.80
2018-10-02T05:43:41.520Z,12.70
2018-10-02T05:44:41.522Z,11.10
2018-10-02T05:45:41.459Z,13.00
2018-10-02T05:46:41.455Z,11.50
2018-10-02T05:47:41.423Z,15.10
2018-10-02T05:48:41.404Z,10.90
2018-10-02T05:49:41.387Z,10.20
2018-10-02T05:50:41.407Z,11.70
2018-10-02T05:51:41.331Z,10.20
2018-10-02T05:52:41.322Z,11.90
2018-10-02T05:53:41.292Z,10.20
2018-10-02T05:54:41.269Z,12.00
2018-10-02T05:55:41.245Z,10.90
2018-10-02T05:56:41.219Z,10.30
2018-10-02T05:57:41.211Z,9.30
2018-10-02T05:58:41.199Z,10.70
2018-10-02T05:59:41.159Z,10.80
2018-10-02T06:00:41.141Z,11.60
2018-10-02T06:01:41.119Z,11.10
2018-10-02T06:02:41.113Z,11.60
2018-10-02T06:03:41.115Z,12.20
2018-10-02T06:04:41.066Z,12.00
2018-10-02T06:05:41.029Z,13.40
2018-10-02T06:06:41.010Z,13.30
2018-10-02T06:07:40.999Z,12.10
2018-10-02T06:08:40.968Z,12.70
2018-10-02T06:09:40.960Z,13.60
2018-10-02T06:10:40.926Z,12.70
2018-10-02T06:11:40.910Z,14.00
2018-10-02T06:12:40.883Z,14.10
2018-10-02T06:13:40.865Z,15.30
2018-10-02T06:14:40.836Z,16.70
2018-10-02T06:15:40.828Z,16.80
2018-10-02T06:16:40.801Z,16.10
2018-10-02T06:17:40.781Z,16.00
2018-10-02T06:18:40.805Z,15.30
2018-10-02T06:19:40.736Z,15.70
2018-10-02T06:20:40.704Z,15.80
2018-10-02T06:21:40.692Z,17.20
2018-10-02T06:22:40.671Z,17.90
2018-10-02T06:23:40.650Z,16.40
2018-10-02T06:24:40.705Z,15.70
2018-10-02T06:25:40.597Z,17.10
2018-10-02T06:26:40.573Z,15.40
2018-10-02T06:27:40.557Z,18.70
2018-10-02T06:28:40.541Z,16.50
2018-10-02T06:29:40.516Z,17.60
2018-10-02T06:30:40.540Z,18.40
2018-10-02T06:31:40.474Z,16.80
2018-10-02T06:32:40.476Z,16.40
2018-10-02T06:33:40.436Z,18.20
2018-10-02T06:34:40.404Z,16.40
2018-10-02T06:35:40.411Z,16.90
2018-10-02T06:36:40.422Z,15.80
2018-10-02T06:37:40.348Z,17.60
2018-10-02T06:38:40.438Z,19.10
2018-10-02T06:39:40.300Z,16.80
2018-10-02T06:40:40.278Z,21.60
2018-10-02T06:41:40.245Z,17.40
2018-10-02T06:42:40.241Z,18.50
2018-10-02T06:43:40.261Z,16.20
2018-10-02T06:44:40.269Z,16.40
2018-10-02T06:45:40.162Z,16.60
2018-10-02T06:46:40.138Z,18.70
2018-10-02T06:47:40.120Z,14.20
2018-10-02T06:48:40.092Z,18.60
2018-10-02T06:49:40.093Z,18.70
2018-10-02T06:50:40.176Z,17.80
2018-10-02T06:51:40.050Z,17.80
2018-10-02T06:52:40.335Z,16.50
2018-10-02T06:53:39.985Z,16.40
2018-10-02T06:54:39.965Z,19.90
2018-10-02T06:55:39.953Z,20.30
2018-10-02T06:56:40.010Z,20.50
2018-10-02T06:57:39.900Z,21.10
2018-10-02T06:58:39.884Z,16.50
2018-10-02T06:59:39.858Z,18.20
2018-10-02T07:00:39.928Z,16.90
2018-10-02T07:01:39.810Z,18.40
2018-10-02T07:02:39.873Z,19.30
2018-10-02T07:05:23.492Z,16.00
2018-10-02T07:06:23.464Z,15.40
2018-10-02T07:07:23.433Z,17.10
2018-10-02T07:08:23.433Z,17.20
2018-10-02T07:09:23.398Z,15.50
2018-10-02T07:10:23.402Z,17.10
2018-10-02T07:11:23.360Z,15.50
2018-10-02T07:12:23.370Z,17.80
2018-10-02T07:13:23.302Z,22.50
2018-10-02T07:14:23.281Z,19.40
2018-10-02T07:15:23.271Z,20.20
2018-10-02T07:16:23.254Z,15.90
2018-10-02T07:17:23.231Z,20.20
2018-10-02T07:18:23.195Z,21.60
2018-10-02T07:19:23.181Z,20.80
2018-10-02T07:20:23.209Z,22.20
2018-10-02T07:21:23.128Z,20.60
2018-10-02T07:22:23.117Z,19.90
2018-10-02T07:23:23.095Z,21.90
2018-10-02T07:24:23.062Z,23.20
2018-10-02T07:25:23.052Z,25.20
2018-10-02T07:26:23.063Z,20.40
2018-10-02T07:27:23.112Z,21.10
2018-10-02T07:28:23.053Z,21.50
2018-10-02T07:29:22.967Z,21.10
2018-10-02T07:30:22.950Z,21.30
2018-10-02T07:31:22.911Z,21.80
2018-10-02T07:32:22.923Z,24.70
2018-10-02T07:33:22.953Z,18.90
2018-10-02T07:34:22.846Z,22.80
2018-10-02T07:35:22.836Z,20.80
2018-10-02T07:36:22.828Z,20.70
2018-10-02T07:37:22.792Z,22.30
2018-10-02T07:38:22.794Z,20.90
2018-10-02T07:39:22.742Z,25.30
2018-10-02T07:40:22.723Z,20.20
2018-10-02T07:41:22.738Z,18.50
2018-10-02T07:42:22.773Z,19.90
2018-10-02T07:43:22.660Z,20.50
2018-10-02T07:44:22.634Z,21.70
2018-10-02T07:45:22.619Z,21.00
2018-10-02T07:46:22.599Z,23.10
2018-10-02T07:47:22.571Z,20.60
2018-10-02T07:48:22.608Z,21.50
2018-10-02T07:49:22.526Z,23.10
2018-10-02T07:50:22.509Z,24.10
2018-10-02T07:51:22.482Z,28.30
2018-10-02T07:52:22.453Z,27.70
2018-10-02T07:53:22.492Z,22.90
2018-10-02T07:54:22.419Z,23.30
2018-10-02T07:55:22.428Z,28.70
2018-10-02T07:56:22.379Z,26.00
2018-10-02T07:57:22.355Z,23.20
2018-10-02T07:58:22.332Z,25.00
2018-10-02T07:59:22.318Z,23.10
2018-10-02T08:00:22.285Z,23.70
2018-10-02T08:01:22.264Z,25.00
2018-10-02T08:02:22.255Z,25.50
2018-10-02T08:03:22.225Z,21.00
2018-10-02T08:04:22.190Z,24.50
2018-10-02T08:05:22.310Z,35.70
2018-10-02T08:06:22.160Z,31.90
2018-10-02T08:07:22.146Z,37.70
2018-10-02T08:08:22.134Z,30.50
2018-10-02T08:09:22.086Z,38.30
2018-10-02T08:10:22.064Z,58.30
2018-10-02T08:11:22.051Z,54.60
2018-10-02T08:12:22.253Z,52.50
2018-10-02T08:13:22.049Z,55.30
2018-10-02T08:14:21.998Z,51.30
2018-10-02T08:15:21.954Z,62.30
2018-10-02T08:16:21.935Z,65.20
2018-10-02T08:17:21.912Z,78.50
2018-10-02T08:18:21.903Z,86.10
2018-10-02T08:19:21.895Z,111.00
2018-10-02T08:20:21.845Z,97.10
2018-10-02T08:21:21.838Z,72.70
2018-10-02T08:22:21.866Z,57.70
2018-10-02T08:23:21.809Z,56.00
2018-10-02T08:24:21.770Z,45.90
2018-10-02T08:25:21.750Z,39.90
2018-10-02T08:26:21.734Z,36.20
2018-10-02T08:27:21.754Z,41.90
2018-10-02T08:28:21.672Z,38.80
2018-10-02T08:29:21.688Z,41.10
2018-10-02T08:30:21.654Z,44.50
2018-10-02T08:31:21.622Z,48.00
2018-10-02T08:32:21.585Z,41.40
2018-10-02T08:33:21.573Z,43.10
2018-10-02T08:34:21.537Z,54.00
2018-10-02T08:35:21.600Z,48.70
2018-10-02T08:36:21.574Z,48.20
2018-10-02T08:37:21.469Z,48.40
2018-10-02T08:38:21.455Z,46.10
2018-10-02T08:39:21.426Z,49.30
2018-10-02T08:40:21.402Z,48.80
2018-10-02T08:41:21.375Z,49.90
2018-10-02T08:42:21.360Z,52.50
2018-10-02T08:43:21.397Z,55.20
2018-10-02T08:44:21.377Z,57.30
2018-10-02T08:45:21.301Z,50.60
2018-10-02T08:46:21.276Z,59.60
2018-10-02T08:47:21.308Z,50.50
2018-10-02T08:48:21.242Z,54.60
2018-10-02T08:49:21.212Z,51.00
2018-10-02T08:50:21.217Z,57.80
2018-10-02T08:51:21.158Z,56.70
2018-10-02T08:52:21.199Z,69.30
2018-10-02T08:53:21.130Z,61.90
2018-10-02T08:54:21.102Z,66.90
2018-10-02T08:55:21.070Z,76.90
2018-10-02T08:56:21.059Z,76.20
2018-10-02T08:57:21.043Z,63.20
2018-10-02T08:58:21.018Z,75.30
2018-10-02T08:59:20.996Z,72.40
2018-10-02T09:00:20.969Z,76.30
2018-10-02T09:01:20.946Z,69.20
2018-10-02T09:02:20.919Z,81.50
2018-10-02T09:03:20.902Z,68.60
2018-10-02T09:04:20.874Z,68.50
2018-10-02T09:05:20.847Z,72.40
2018-10-02T09:06:20.854Z,71.30
2018-10-02T09:07:20.812Z,70.70
2018-10-02T09:08:20.791Z,63.60
2018-10-02T09:09:20.773Z,66.50
2018-10-02T09:10:20.747Z,69.00
2018-10-02T09:11:20.725Z,63.00
2018-10-02T09:12:20.703Z,62.20
2018-10-02T09:13:20.675Z,64.00
2018-10-02T09:14:20.666Z,59.60
2018-10-02T09:15:20.654Z,49.60
2018-10-02T09:16:20.689Z,44.40
2018-10-02T09:17:20.587Z,46.20
2018-10-02T09:18:20.606Z,43.60
2018-10-02T09:19:20.547Z,42.10
2018-10-02T09:20:20.523Z,47.10
2018-10-02T09:21:20.541Z,48.40
2018-10-02T09:22:20.486Z,46.50
2018-10-02T09:23:20.452Z,48.80
2018-10-02T09:24:20.454Z,44.90
2018-10-02T09:25:20.433Z,40.30
2018-10-02T09:26:20.401Z,44.70
2018-10-02T09:27:20.444Z,40.90
2018-10-02T09:28:20.380Z,40.00
2018-10-02T09:29:20.331Z,42.90
2018-10-02T09:30:20.415Z,45.20
2018-10-02T09:31:20.424Z,42.90
2018-10-02T09:32:20.274Z,43.80
2018-10-02T09:33:20.259Z,45.70
2018-10-02T09:34:20.235Z,47.50
2018-10-02T09:35:20.211Z,49.60
2018-10-02T09:36:20.196Z,47.70
2018-10-02T09:37:20.189Z,39.60
2018-10-02T09:38:20.152Z,44.30
2018-10-02T09:39:20.130Z,43.10
2018-10-02T09:40:20.106Z,44.00
2018-10-02T09:41:20.091Z,43.70
2018-10-02T09:42:20.082Z,46.50
2018-10-02T09:43:20.097Z,43.10
2018-10-02T09:44:20.028Z,39.00
2018-10-02T09:45:20.006Z,38.30
2018-10-02T09:46:19.977Z,43.20
2018-10-02T09:47:19.957Z,42.70
2018-10-02T09:48:19.925Z,38.00
2018-10-02T09:49:19.904Z,43.90
2018-10-02T09:50:19.884Z,47.70
2018-10-02T09:51:19.876Z,44.90
2018-10-02T09:52:19.846Z,43.40
2018-10-02T09:53:19.827Z,48.90
2018-10-02T09:54:19.819Z,42.10
2018-10-02T09:55:19.786Z,48.60
2018-10-02T09:56:19.774Z,44.10
2018-10-02T09:57:19.745Z,44.60
2018-10-02T09:58:19.723Z,35.70
2018-10-02T09:59:19.707Z,32.00
2018-10-02T10:00:19.688Z,39.70
2018-10-02T10:01:19.656Z,46.30
2018-10-02T10:02:19.639Z,34.10
2018-10-02T10:03:19.618Z,34.50
2018-10-02T10:04:19.650Z,29.70
2018-10-02T10:05:19.572Z,37.70
2018-10-02T10:06:19.565Z,32.50
2018-10-02T10:07:19.541Z,36.10
2018-10-02T10:08:19.509Z,30.30
2018-10-02T10:09:19.495Z,34.00
2018-10-02T10:10:19.520Z,36.40
2018-10-02T10:11:19.459Z,29.60
2018-10-02T10:12:19.427Z,32.30
2018-10-02T10:13:19.401Z,31.60
2018-10-02T10:14:52.600Z,30.10
2018-10-02T10:15:19.376Z,25.80
2018-10-02T10:16:19.357Z,23.70
2018-10-02T10:17:19.440Z,22.80
2018-10-02T10:18:19.304Z,22.60
2018-10-02T10:19:19.286Z,22.00
2018-10-02T10:20:19.274Z,23.80
2018-10-02T10:21:19.249Z,22.70
2018-10-02T10:22:19.228Z,26.60
2018-10-02T10:23:19.216Z,21.90
2018-10-02T10:24:19.182Z,21.40
2018-10-02T10:25:19.174Z,21.80
2018-10-02T10:26:19.138Z,21.80
2018-10-02T10:27:19.124Z,21.90
2018-10-02T10:28:19.099Z,22.20
2018-10-02T10:29:19.092Z,23.30
2018-10-02T10:30:19.063Z,26.10
2018-10-02T10:31:19.039Z,23.50
2018-10-02T10:32:19.031Z,22.80
2018-10-02T10:33:19.025Z,21.10
2018-10-02T10:34:18.982Z,20.60
2018-10-02T10:35:18.966Z,20.50
2018-10-02T10:36:18.953Z,20.50
2018-10-02T10:37:18.940Z,21.50
2018-10-02T10:38:18.905Z,18.70
2018-10-02T10:39:18.895Z,24.90
2018-10-02T10:40:18.877Z,19.00
2018-10-02T10:41:18.845Z,20.00
2018-10-02T10:42:18.830Z,18.90
2018-10-02T10:43:18.811Z,19.40
2018-10-02T10:44:18.889Z,18.40
2018-10-02T10:45:18.770Z,19.80
2018-10-02T10:46:18.768Z,26.10
2018-10-02T10:47:18.750Z,21.40
2018-10-02T10:48:18.725Z,19.60
2018-10-02T10:49:18.698Z,20.40
2018-10-02T10:50:18.684Z,22.70
2018-10-02T10:51:18.655Z,24.40
2018-10-02T10:52:18.646Z,18.50
2018-10-02T10:53:18.632Z,18.70
2018-10-02T10:54:18.604Z,18.90
2018-10-02T10:55:18.580Z,18.00
2018-10-02T10:56:18.627Z,17.10
2018-10-02T10:57:18.560Z,16.30
2018-10-02T10:58:18.528Z,18.20
2018-10-02T10:59:18.513Z,15.30
2018-10-02T11:00:18.507Z,15.60
2018-10-02T11:01:18.493Z,20.10
2018-10-02T11:02:18.478Z,14.60
2018-10-02T11:03:18.458Z,15.80
2018-10-02T11:04:18.443Z,15.20
2018-10-02T11:05:18.415Z,15.40
2018-10-02T11:06:18.407Z,16.10
2018-10-02T11:07:18.392Z,15.40
2018-10-02T11:08:18.367Z,14.50
2018-10-02T11:09:18.421Z,14.80
2018-10-02T11:10:18.352Z,15.00
2018-10-02T11:11:18.329Z,14.60
2018-10-02T11:12:18.311Z,14.60
2018-10-02T11:13:18.302Z,14.30
2018-10-02T11:14:18.293Z,13.80
2018-10-02T11:15:18.339Z,14.40
2018-10-02T11:16:18.249Z,13.20
2018-10-02T11:17:18.252Z,14.00
2018-10-02T11:18:18.242Z,14.60
2018-10-02T11:19:18.214Z,14.70
2018-10-02T11:20:18.198Z,14.50
2018-10-02T11:21:18.197Z,13.70
2018-10-02T11:22:18.174Z,15.40
2018-10-02T11:23:18.176Z,14.90
2018-10-02T11:24:18.164Z,13.60
2018-10-02T11:25:18.157Z,15.90
2018-10-02T11:26:18.134Z,14.50
2018-10-02T11:27:18.117Z,14.20
2018-10-02T11:28:18.106Z,15.60
2018-10-02T11:29:18.100Z,14.70
2018-10-02T11:30:18.089Z,14.50
2018-10-02T11:31:18.108Z,14.00
2018-10-02T11:32:18.064Z,15.20
2018-10-02T11:33:18.033Z,14.70
2018-10-02T11:34:18.024Z,14.70
2018-10-02T11:35:18.080Z,17.10
2018-10-02T11:36:17.996Z,16.30
2018-10-02T11:37:18.033Z,17.00
2018-10-02T11:38:17.972Z,17.70
2018-10-02T11:39:17.965Z,17.30
2018-10-02T11:40:17.954Z,17.80
2018-10-02T11:41:17.930Z,17.80
2018-10-02T11:42:17.930Z,18.10
2018-10-02T11:43:17.990Z,17.50
2018-10-02T11:44:18.079Z,18.10
2018-10-02T11:45:17.893Z,18.70
2018-10-02T11:46:17.880Z,17.60
2018-10-02T11:47:17.864Z,20.20
2018-10-02T11:48:17.845Z,19.50
2018-10-02T11:49:17.858Z,20.70
2018-10-02T11:50:17.806Z,20.60
2018-10-02T11:51:17.800Z,19.60
2018-10-02T11:52:17.795Z,20.00
2018-10-02T11:53:17.780Z,19.70
2018-10-02T11:54:17.773Z,18.40
2018-10-02T11:55:17.811Z,19.70
2018-10-02T11:56:17.742Z,18.70
2018-10-02T11:57:17.727Z,18.40
2018-10-02T11:58:17.721Z,19.00
2018-10-02T11:59:17.702Z,18.90
2018-10-02T12:00:17.690Z,20.90
2018-10-02T12:01:17.836Z,19.80
2018-10-02T12:02:17.659Z,20.40
2018-10-02T12:03:17.688Z,19.60
2018-10-02T12:04:17.629Z,19.50
2018-10-02T12:05:17.616Z,18.90
2018-10-02T12:06:17.594Z,20.20
2018-10-02T12:07:17.598Z,18.50
2018-10-02T12:08:17.567Z,19.50
2018-10-02T12:09:17.557Z,16.90
2018-10-02T12:10:17.544Z,18.20
2018-10-02T12:11:17.530Z,18.20
2018-10-02T12:12:17.525Z,17.60
2018-10-02T12:13:17.531Z,16.70
2018-10-02T12:14:17.902Z,16.40
2018-10-02T12:15:17.548Z,17.00
2018-10-02T12:16:50.676Z,17.60
2018-10-02T12:17:17.455Z,17.50
2018-10-02T12:18:17.454Z,16.80
2018-10-02T12:19:17.459Z,15.90
2018-10-02T12:20:17.415Z,16.50
2018-10-02T12:21:17.411Z,16.60
2018-10-02T12:22:17.396Z,18.10
2018-10-02T12:23:17.369Z,18.20
2018-10-02T12:24:17.369Z,17.20
2018-10-02T12:25:17.353Z,17.10
2018-10-02T12:26:17.350Z,16.50
2018-10-02T12:27:17.332Z,17.20
2018-10-02T12:28:17.316Z,17.90
2018-10-02T12:29:17.288Z,19.50
2018-10-02T12:30:17.280Z,16.10
2018-10-02T12:31:17.290Z,16.00
2018-10-02T12:32:17.281Z,16.60
2018-10-02T12:33:17.247Z,17.00
2018-10-02T12:34:17.238Z,18.00
2018-10-02T12:35:17.237Z,16.70
2018-10-02T12:36:17.222Z,16.10
2018-10-02T12:37:17.213Z,14.30
2018-10-02T12:38:17.188Z,13.30
2018-10-02T12:39:17.239Z,14.70
2018-10-02T12:40:17.171Z,14.20
2018-10-02T12:41:17.162Z,13.00
2018-10-02T12:42:17.147Z,14.60
2018-10-02T12:43:17.133Z,15.70
2018-10-02T12:44:17.123Z,17.00
2018-10-02T12:45:17.115Z,16.80
2018-10-02T12:46:17.184Z,14.60
2018-10-02T12:47:17.087Z,13.70
2018-10-02T12:48:17.059Z,15.00
2018-10-02T12:49:17.056Z,14.20
2018-10-02T12:50:17.049Z,13.90
2018-10-02T12:51:17.045Z,14.50
2018-10-02T12:52:17.106Z,13.80
2018-10-02T12:53:17.094Z,14.20
2018-10-02T12:54:16.998Z,13.90